Time;durP1;ratioP1;P1;durP2;ratioP2;P2;SDS_P1;SDS_P2;PMS_P1;PMS_P2;Temp;Humidity;BMP_temperature;BMP_pressure;BME280_temperature;BME280_humidity;BME280_pressure;Samples;Min_cycle;Max_cycle;Signal;HPM_P1;HPM_P2
2022/04/17 00:02:06;;;;;;;9.48;5.85;;;10.30;99.90;;;;;;5033092;28;20041;-60
2022/04/17 00:04:31;;;;;;;8.00;5.70;;;10.30;99.90;;;;;;5033270;28;20025;-60
2022/04/17 00:06:58;;;;;;;11.05;6.10;;;10.20;99.90;;;;;;5034197;28;20033;-59
2022/04/17 00:09:23;;;;;;;6.55;5.82;;;10.20;99.90;;;;;;5030231;28;20042;-59
2022/04/17 00:11:49;;;;;;;11.80;5.50;;;10.20;99.90;;;;;;5035885;28;20554;-59
2022/04/17 00:14:15;;;;;;;8.90;5.78;;;9.90;99.90;;;;;;5034300;28;20493;-60
2022/04/17 00:16:41;;;;;;;9.52;6.07;;;9.70;99.90;;;;;;5034185;28;20033;-59
2022/04/17 00:19:09;;;;;;;10.93;5.47;;;9.70;99.90;;;;;;5034325;28;20085;-59
2022/04/17 00:21:35;;;;;;;9.90;5.72;;;9.80;99.90;;;;;;5032309;28;20116;-59
2022/04/17 00:24:01;;;;;;;9.30;5.60;;;9.80;99.90;;;;;;5032518;28;20180;-60
2022/04/17 00:26:27;;;;;;;9.63;6.40;;;9.80;99.90;;;;;;5035425;28;20037;-60
2022/04/17 00:28:52;;;;;;;10.65;6.50;;;9.70;99.90;;;;;;5034194;28;20036;-59
2022/04/17 00:31:18;;;;;;;7.80;5.90;;;9.70;99.90;;;;;;5034446;28;20398;-59
2022/04/17 00:33:44;;;;;;;7.78;5.95;;;9.60;99.90;;;;;;5032844;28;20020;-59
2022/04/17 00:36:09;;;;;;;10.07;6.15;;;9.70;99.90;;;;;;5030044;28;20029;-60
2022/04/17 00:38:35;;;;;;;8.82;6.20;;;9.60;99.90;;;;;;5035703;28;20033;-59
2022/04/17 00:41:01;;;;;;;8.32;6.20;;;9.50;99.90;;;;;;5032690;28;20026;-60
2022/04/17 00:43:33;;;;;;;9.57;6.30;;;9.40;99.90;;;;;;5032866;28;20521;-59
2022/04/17 00:45:59;;;;;;;9.35;6.53;;;9.30;99.90;;;;;;5034021;28;20090;-59
2022/04/17 00:48:25;;;;;;;12.35;6.30;;;9.40;99.90;;;;;;5030260;28;22214;-59
2022/04/17 00:50:55;;;;;;;10.15;6.05;;;9.40;99.90;;;;;;5035387;28;20032;-60
2022/04/17 00:53:23;;;;;;;9.25;7.00;;;9.20;99.90;;;;;;5033090;28;20014;-60
2022/04/17 00:55:49;;;;;;;10.52;6.53;;;9.30;99.90;;;;;;5033914;28;20076;-60
2022/04/17 00:58:16;;;;;;;10.18;7.47;;;9.30;99.90;;;;;;5033842;28;20034;-60
2022/04/17 01:00:42;;;;;;;10.50;7.13;;;9.20;99.90;;;;;;5032658;28;20486;-60
2022/04/17 01:03:10;;;;;;;10.93;8.07;;;9.20;99.90;;;;;;5031088;28;20124;-60
2022/04/17 01:05:39;;;;;;;10.75;7.30;;;9.20;99.90;;;;;;5035505;28;20100;-60
2022/04/17 01:08:06;;;;;;;8.23;6.50;;;9.10;99.90;;;;;;5033361;28;20441;-59
2022/04/17 01:10:33;;;;;;;9.07;6.65;;;8.80;99.90;;;;;;5033722;28;20029;-60
2022/04/17 01:13:00;;;;;;;7.93;6.20;;;8.70;99.90;;;;;;5033685;28;20033;-60
2022/04/17 01:15:28;;;;;;;10.18;5.95;;;8.70;99.90;;;;;;5030396;28;20422;-60
2022/04/17 01:17:54;;;;;;;6.53;5.80;;;8.50;99.90;;;;;;5034242;28;20057;-59
2022/04/17 01:20:23;;;;;;;10.80;6.30;;;8.70;99.90;;;;;;5032935;28;20018;-60
2022/04/17 01:22:51;;;;;;;9.95;7.18;;;8.80;99.90;;;;;;5031764;28;20494;-59
2022/04/17 01:28:01;;;;;;;11.05;6.43;;;8.90;99.90;;;;;;5034049;28;20123;-60
2022/04/17 01:30:27;;;;;;;10.50;6.90;;;8.60;99.90;;;;;;5030079;28;20018;-60
2022/04/17 01:32:53;;;;;;;9.95;6.60;;;8.50;99.90;;;;;;5034320;28;20372;-60
2022/04/17 01:35:22;;;;;;;11.20;7.38;;;8.80;99.90;;;;;;5032915;28;20031;-60
2022/04/17 01:37:49;;;;;;;8.88;6.70;;;8.80;99.90;;;;;;5033142;28;20506;-59
2022/04/17 01:40:15;;;;;;;9.15;7.15;;;8.70;99.90;;;;;;5033547;28;20025;-60
2022/04/17 01:42:41;;;;;;;9.38;6.18;;;8.70;99.90;;;;;;5031915;28;20055;-59
2022/04/17 01:45:07;;;;;;;10.65;6.57;;;8.70;99.90;;;;;;5030910;28;20646;-59
2022/04/17 01:47:33;;;;;;;7.43;6.13;;;8.90;99.90;;;;;;5038954;28;20042;-59
2022/04/17 01:49:59;;;;;;;10.00;6.47;;;8.60;99.90;;;;;;5037097;28;20397;-60
2022/04/17 01:52:25;;;;;;;10.98;7.18;;;8.50;99.90;;;;;;5036958;28;20052;-60
2022/04/17 01:54:51;;;;;;;8.80;6.80;;;8.30;99.90;;;;;;5036691;28;20031;-60
2022/04/17 01:57:17;;;;;;;8.02;6.20;;;8.10;99.90;;;;;;5032022;28;20124;-60
2022/04/17 01:59:43;;;;;;;7.63;6.80;;;8.10;99.90;;;;;;5038485;28;20079;-60
2022/04/17 02:02:09;;;;;;;11.38;8.02;;;8.20;99.90;;;;;;5020700;28;20142;-60
2022/04/17 02:04:36;;;;;;;8.93;7.88;;;8.20;99.90;;;;;;5036728;28;20113;-60
2022/04/17 02:07:05;;;;;;;15.38;8.95;;;7.90;99.90;;;;;;5036221;28;20033;-60
2022/04/17 02:09:31;;;;;;;10.98;7.60;;;7.90;99.90;;;;;;5034119;28;20029;-60
2022/04/17 02:11:57;;;;;;;11.55;9.23;;;7.80;99.90;;;;;;5036649;28;20112;-60
2022/04/17 02:14:22;;;;;;;10.48;8.88;;;8.00;99.90;;;;;;5037193;28;20117;-60
2022/04/17 02:16:48;;;;;;;11.43;7.85;;;8.00;99.90;;;;;;5036542;28;20047;-60
2022/04/17 02:19:14;;;;;;;10.13;8.80;;;8.10;99.90;;;;;;5035210;28;20544;-60
2022/04/17 02:21:40;;;;;;;10.30;9.13;;;8.00;99.90;;;;;;5034374;28;20120;-60
2022/04/17 02:24:06;;;;;;;13.48;9.05;;;8.00;99.90;;;;;;5034493;28;20037;-60
2022/04/17 02:26:32;;;;;;;8.82;7.90;;;8.00;99.90;;;;;;5036168;28;20112;-59
2022/04/17 02:28:59;;;;;;;10.73;8.07;;;8.00;99.90;;;;;;5036423;28;20034;-59
2022/04/17 02:31:26;;;;;;;10.65;8.30;;;8.00;99.90;;;;;;5036240;28;20025;-60
2022/04/17 02:33:52;;;;;;;10.60;8.60;;;8.00;99.90;;;;;;5036122;28;20025;-60
2022/04/17 02:36:19;;;;;;;9.20;8.05;;;7.90;99.90;;;;;;5030539;28;20128;-59
2022/04/17 02:38:47;;;;;;;10.38;8.18;;;7.80;99.90;;;;;;5038417;28;20058;-60
2022/04/17 02:41:12;;;;;;;10.25;8.45;;;7.80;99.90;;;;;;5034492;28;20529;-59
2022/04/17 02:43:38;;;;;;;12.15;9.23;;;7.60;99.90;;;;;;5036082;28;20029;-59
2022/04/17 02:46:04;;;;;;;10.00;8.75;;;7.40;99.90;;;;;;5035816;28;20521;-59
2022/04/17 02:48:31;;;;;;;11.82;9.13;;;7.60;99.90;;;;;;5032821;28;20045;-59
2022/04/17 02:50:57;;;;;;;12.93;9.65;;;7.60;99.90;;;;;;5035951;28;20084;-59
2022/04/17 02:53:24;;;;;;;13.35;9.80;;;7.60;99.90;;;;;;5068956;28;20537;-59
2022/04/17 02:55:51;;;;;;;9.80;8.68;;;7.60;99.90;;;;;;5035618;28;20033;-59
2022/04/17 02:58:16;;;;;;;11.02;9.10;;;7.60;99.90;;;;;;5035649;28;20469;-59
2022/04/17 03:06:11;;;;;;;11.18;9.68;;;7.40;99.90;;;;;;5033180;28;19935;-59
2022/04/17 03:08:41;;;;;;;10.50;9.38;;;7.30;99.90;;;;;;5037595;28;20038;-59
2022/04/17 03:11:07;;;;;;;11.18;9.43;;;7.40;99.90;;;;;;5035731;28;20022;-59
2022/04/17 03:13:33;;;;;;;10.23;8.63;;;7.30;99.90;;;;;;5035738;28;20041;-59
2022/04/17 03:15:59;;;;;;;11.68;9.70;;;7.30;99.90;;;;;;5033962;28;20516;-59
2022/04/17 03:18:25;;;;;;;10.82;9.35;;;7.30;99.90;;;;;;5029805;28;20110;-59
2022/04/17 03:20:51;;;;;;;10.50;9.57;;;7.20;99.90;;;;;;5037114;28;20104;-59
2022/04/17 03:23:17;;;;;;;10.57;9.35;;;7.20;99.90;;;;;;5034517;28;20410;-59
2022/04/17 03:25:44;;;;;;;14.07;10.48;;;7.10;99.90;;;;;;5035227;28;20018;-59
2022/04/17 03:28:10;;;;;;;13.93;10.68;;;7.10;99.90;;;;;;5035200;28;20060;-59
2022/04/17 03:30:35;;;;;;;9.90;9.00;;;7.10;99.90;;;;;;5032667;28;20087;-59
2022/04/17 03:33:02;;;;;;;14.07;11.30;;;7.00;99.90;;;;;;5032853;28;20033;-59
2022/04/17 03:35:28;;;;;;;12.52;11.07;;;7.10;99.90;;;;;;5036398;28;20061;-60
2022/04/17 03:37:54;;;;;;;11.18;10.15;;;7.00;99.90;;;;;;5034764;28;20053;-59
2022/04/17 03:40:20;;;;;;;13.20;11.88;;;6.90;99.90;;;;;;5035575;28;20546;-59
2022/04/17 03:42:49;;;;;;;10.85;9.70;;;6.60;99.90;;;;;;5034045;28;20029;-60
2022/04/17 03:45:17;;;;;;;13.20;10.32;;;6.70;99.90;;;;;;5031073;28;20036;-59
2022/04/17 03:47:43;;;;;;;17.10;12.07;;;6.90;99.90;;;;;;5036623;28;20037;-59
2022/04/17 03:50:10;;;;;;;13.55;10.50;;;6.80;99.90;;;;;;5034934;28;20036;-59
2022/04/17 03:52:43;;;;;;;11.85;9.82;;;6.80;99.90;;;;;;5034773;28;20502;-59
2022/04/17 03:55:10;;;;;;;12.32;9.85;;;6.80;99.90;;;;;;5033544;28;20029;-59
2022/04/17 03:57:35;;;;;;;13.40;11.77;;;7.00;99.90;;;;;;5031024;28;20034;-59
2022/04/17 04:00:04;;;;;;;15.10;13.57;;;7.00;99.90;;;;;;5033808;28;20026;-60
2022/04/17 04:02:30;;;;;;;17.38;11.25;;;7.00;99.90;;;;;;5036192;28;20120;-59
2022/04/17 04:04:57;;;;;;;13.90;12.35;;;7.00;99.90;;;;;;5034984;28;20137;-59
2022/04/17 04:07:23;;;;;;;13.65;12.25;;;7.00;99.90;;;;;;5034687;28;20067;-59
2022/04/17 04:09:49;;;;;;;12.90;11.57;;;7.00;99.90;;;;;;5034017;28;20113;-59
2022/04/17 04:12:15;;;;;;;15.73;12.85;;;7.00;99.90;;;;;;5030898;28;20104;-60
2022/04/17 04:14:40;;;;;;;24.63;14.90;;;7.10;99.90;;;;;;5036339;28;20061;-59
2022/04/17 04:17:06;;;;;;;72.15;16.90;;;7.40;99.90;;;;;;5033201;28;20025;-59
2022/04/17 04:19:32;;;;;;;104.88;22.67;;;7.30;99.90;;;;;;5034552;28;20109;-60
2022/04/17 04:21:58;;;;;;;67.00;21.13;;;7.20;99.90;;;;;;5034317;28;20021;-59
2022/04/17 04:24:24;;;;;;;77.60;16.52;;;7.10;99.90;;;;;;5030513;28;20033;-59
2022/04/17 04:29:35;;;;;;;79.53;19.73;;;7.20;99.90;;;;;;5035403;28;20036;-59
2022/04/17 04:32:02;;;;;;;81.68;30.00;;;6.90;99.90;;;;;;5033995;28;20093;-59
2022/04/17 04:34:28;;;;;;;52.67;23.10;;;6.70;99.90;;;;;;5032875;28;20386;-59
2022/04/17 04:36:53;;;;;;;78.32;35.30;;;6.70;99.90;;;;;;5032689;28;20048;-59
2022/04/17 04:39:19;;;;;;;46.38;20.25;;;6.70;99.90;;;;;;5030430;28;20029;-59
2022/04/17 04:41:45;;;;;;;82.20;32.05;;;6.60;99.90;;;;;;5036218;28;20033;-59
2022/04/17 04:44:12;;;;;;;51.63;26.45;;;6.50;99.90;;;;;;5034104;28;20052;-59
2022/04/17 04:46:38;;;;;;;34.03;20.13;;;6.40;99.90;;;;;;5033655;28;20095;-60
2022/04/17 04:51:49;;;;;;;44.25;24.25;;;6.50;99.90;;;;;;5033979;28;20082;-59
2022/04/17 04:54:15;;;;;;;27.65;17.65;;;6.60;99.90;;;;;;5030440;28;20026;-59
2022/04/17 04:56:40;;;;;;;18.52;15.75;;;6.40;99.90;;;;;;5035905;28;20025;-59
2022/04/17 04:59:06;;;;;;;17.08;15.27;;;6.50;99.90;;;;;;5033778;28;20034;-59
2022/04/17 05:01:32;;;;;;;15.77;14.10;;;6.40;99.90;;;;;;5034425;28;20175;-59
2022/04/17 05:03:57;;;;;;;12.38;11.23;;;6.60;99.90;;;;;;5034191;28;20031;-59
2022/04/17 05:06:23;;;;;;;13.07;11.88;;;6.50;99.90;;;;;;5029908;28;20038;-59
2022/04/17 05:08:49;;;;;;;13.45;11.63;;;6.60;99.90;;;;;;5035620;28;20392;-60
2022/04/17 05:11:15;;;;;;;11.63;10.43;;;6.60;99.90;;;;;;5032412;28;20064;-59
2022/04/17 05:13:41;;;;;;;33.65;14.95;;;6.50;99.90;;;;;;5032656;28;20037;-60
2022/04/17 05:16:07;;;;;;;42.30;20.60;;;6.50;99.90;;;;;;5032208;28;20035;-59
2022/04/17 05:18:33;;;;;;;36.13;18.10;;;6.50;99.90;;;;;;5031279;28;20445;-59
2022/04/17 05:20:59;;;;;;;27.15;12.48;;;6.50;99.90;;;;;;5034460;28;20033;-60
2022/04/17 05:23:31;;;;;;;25.75;14.50;;;6.40;99.90;;;;;;5039037;28;20029;-59
2022/04/17 05:25:59;;;;;;;29.30;10.32;;;6.40;99.90;;;;;;5037766;28;20040;-59
2022/04/17 05:28:26;;;;;;;28.13;14.27;;;6.50;99.90;;;;;;5037278;28;20037;-59
2022/04/17 05:30:51;;;;;;;36.30;12.57;;;6.40;99.90;;;;;;5037458;28;20021;-59
2022/04/17 05:33:18;;;;;;;52.15;13.23;;;6.40;99.90;;;;;;5033350;28;20037;-59
2022/04/17 05:35:44;;;;;;;21.33;13.70;;;6.30;99.90;;;;;;5039717;28;20505;-59
2022/04/17 05:38:11;;;;;;;33.47;10.60;;;6.40;99.90;;;;;;5037268;28;20049;-59
2022/04/17 05:40:45;;;;;;;30.92;8.85;;;6.60;99.90;;;;;;5037248;28;20067;-59
2022/04/17 05:43:11;;;;;;;31.75;15.10;;;6.60;99.90;;;;;;5036939;28;20071;-59
2022/04/17 05:45:38;;;;;;;31.77;11.75;;;6.80;99.90;;;;;;5034970;28;20040;-59
2022/04/17 05:48:06;;;;;;;41.92;11.70;;;6.60;99.90;;;;;;5035112;28;20052;-60
2022/04/17 05:50:32;;;;;;;35.17;10.75;;;6.70;99.90;;;;;;5037190;28;20029;-59
2022/04/17 05:52:58;;;;;;;23.20;9.20;;;6.80;99.90;;;;;;5036024;28;20041;-59
2022/04/17 05:55:24;;;;;;;110.43;14.88;;;6.70;99.90;;;;;;5034159;28;20026;-59
2022/04/17 05:57:50;;;;;;;56.45;13.65;;;6.80;99.90;;;;;;5036463;28;20025;-59
2022/04/17 06:00:16;;;;;;;96.70;14.88;;;6.80;99.90;;;;;;5033019;28;20093;-59
2022/04/17 06:02:44;;;;;;;64.55;12.18;;;6.90;99.90;;;;;;5038870;28;20440;-59
2022/04/17 06:05:11;;;;;;;90.57;17.75;;;7.00;99.90;;;;;;5036887;28;20074;-60
2022/04/17 06:07:37;;;;;;;56.97;11.73;;;7.00;99.90;;;;;;5037271;28;20410;-59
2022/04/17 06:10:07;;;;;;;74.85;10.05;;;7.10;99.90;;;;;;5036709;28;20591;-59
2022/04/17 06:12:34;;;;;;;72.40;8.70;;;7.40;99.90;;;;;;5033751;28;20029;-59
2022/04/17 06:15:00;;;;;;;67.75;9.70;;;7.60;99.90;;;;;;5035791;28;20049;-60
2022/04/17 06:17:25;;;;;;;104.28;11.82;;;7.50;99.90;;;;;;5037892;28;20072;-59
2022/04/17 06:19:51;;;;;;;84.60;10.25;;;7.80;99.90;;;;;;5037115;28;20025;-60
2022/04/17 06:22:18;;;;;;;84.00;9.25;;;7.80;99.90;;;;;;5036684;28;20080;-59
2022/04/17 06:24:46;;;;;;;140.48;12.73;;;8.00;99.90;;;;;;5035226;28;20044;-59
2022/04/17 06:27:12;;;;;;;88.38;10.70;;;8.30;99.90;;;;;;5032497;28;20033;-59
2022/04/17 06:29:38;;;;;;;45.05;6.75;;;8.60;99.90;;;;;;5037262;28;20030;-59
2022/04/17 06:32:04;;;;;;;52.67;6.85;;;9.20;99.90;;;;;;5034685;28;20606;-59
2022/04/17 06:34:30;;;;;;;67.07;6.50;;;9.40;99.90;;;;;;5034834;28;20030;-59
2022/04/17 06:36:55;;;;;;;49.30;5.25;;;9.60;99.90;;;;;;5036215;28;20047;-59
2022/04/17 06:39:21;;;;;;;63.10;4.75;;;9.70;99.90;;;;;;5031866;28;20486;-60
2022/04/17 06:41:49;;;;;;;57.15;5.28;;;9.90;99.90;;;;;;5037912;28;20022;-59
2022/04/17 06:44:15;;;;;;;51.70;5.15;;;9.90;99.90;;;;;;5036630;28;20061;-59
2022/04/17 06:46:41;;;;;;;155.95;6.80;;;9.90;99.90;;;;;;5035885;28;20065;-59
2022/04/17 06:49:07;;;;;;;68.63;5.28;;;9.90;99.90;;;;;;5036186;28;20028;-60
2022/04/17 06:51:33;;;;;;;54.47;5.20;;;9.80;99.90;;;;;;5033777;28;20051;-60
2022/04/17 06:53:59;;;;;;;63.45;5.07;;;9.80;99.90;;;;;;5035321;28;20060;-59
2022/04/17 06:56:24;;;;;;;24.92;4.10;;;10.10;99.90;;;;;;5036647;28;20044;-60
2022/04/17 06:58:50;;;;;;;138.60;6.60;;;10.70;99.90;;;;;;5035971;28;20036;-59
2022/04/17 07:01:17;;;;;;;7.32;4.07;;;10.50;99.90;;;;;;5035923;28;20398;-59
2022/04/17 07:03:46;;;;;;;20.52;4.00;;;10.30;99.90;;;;;;5034969;28;20178;-59
2022/04/17 07:06:12;;;;;;;16.17;3.67;;;10.70;99.90;;;;;;5032248;28;20064;-59
2022/04/17 07:08:38;;;;;;;14.75;3.95;;;10.70;99.90;;;;;;5037686;28;20029;-59
2022/04/17 07:11:04;;;;;;;4.65;4.35;;;11.10;99.90;;;;;;5034035;28;20048;-59
2022/04/17 07:13:31;;;;;;;27.58;4.22;;;11.00;99.90;;;;;;5034039;28;20478;-59
2022/04/17 07:15:56;;;;;;;77.32;4.93;;;11.20;99.90;;;;;;5035963;28;20061;-59
2022/04/17 07:18:22;;;;;;;47.67;4.55;;;11.30;99.90;;;;;;5031370;28;20029;-58
2022/04/17 07:20:48;;;;;;;28.45;4.70;;;11.30;99.90;;;;;;5037412;28;20036;-59
2022/04/17 07:23:14;;;;;;;61.88;5.15;;;11.30;99.90;;;;;;5035624;28;20395;-59
2022/04/17 07:25:40;;;;;;;40.60;4.38;;;11.40;99.90;;;;;;5035040;28;20037;-59
2022/04/17 07:28:12;;;;;;;46.22;4.60;;;11.60;99.90;;;;;;5035053;28;20067;-59
2022/04/17 07:30:38;;;;;;;30.83;4.45;;;11.90;99.90;;;;;;5033020;28;20029;-59
2022/04/17 07:33:04;;;;;;;25.77;4.28;;;12.00;99.90;;;;;;5033166;28;20017;-60
2022/04/17 07:35:30;;;;;;;79.40;5.40;;;12.30;99.90;;;;;;5037214;28;20040;-60
2022/04/17 07:38:04;;;;;;;51.25;5.30;;;12.30;99.90;;;;;;5034779;28;20037;-60
2022/04/17 07:40:31;;;;;;;16.23;4.45;;;12.20;99.90;;;;;;5034672;28;20075;-60
2022/04/17 07:43:00;;;;;;;24.38;5.15;;;11.90;99.90;;;;;;5034349;28;20029;-60
2022/04/17 07:45:27;;;;;;;73.65;6.13;;;12.20;99.90;;;;;;5030905;28;20061;-60
2022/04/17 07:47:53;;;;;;;6.75;4.47;;;11.90;99.90;;;;;;5035570;28;20096;-59
2022/04/17 07:50:25;;;;;;;6.03;4.60;;;12.30;99.90;;;;;;5033943;28;20022;-60
2022/04/17 07:52:53;;;;;;;9.27;4.40;;;12.50;99.90;;;;;;5032025;28;20056;-60
2022/04/17 07:55:19;;;;;;;29.55;5.68;;;12.90;99.90;;;;;;5034211;28;20528;-58
2022/04/17 08:00:35;;;;;;;15.90;5.53;;;12.70;99.90;;;;;;5017809;28;20040;-59
2022/04/17 08:03:08;;;;;;;11.82;5.80;;;12.80;99.90;;;;;;5033715;28;20022;-60
2022/04/17 08:05:38;;;;;;;8.93;6.60;;;12.90;99.90;;;;;;5034482;28;20037;-60
2022/04/17 08:08:06;;;;;;;7.60;6.80;;;13.00;99.90;;;;;;5034162;28;20451;-60
2022/04/17 08:10:32;;;;;;;8.57;6.78;;;13.10;99.90;;;;;;5034356;28;20405;-60
2022/04/17 08:12:58;;;;;;;22.67;7.72;;;13.40;99.90;;;;;;5034506;28;20028;-60
2022/04/17 08:15:24;;;;;;;8.27;7.57;;;13.30;99.90;;;;;;5030329;28;20835;-59
2022/04/17 08:17:49;;;;;;;8.48;7.68;;;13.50;99.90;;;;;;5036377;28;20460;-60
2022/04/17 08:20:15;;;;;;;7.85;7.18;;;13.60;99.90;;;;;;5034317;28;20021;-60
2022/04/17 08:22:41;;;;;;;8.05;7.35;;;13.60;99.90;;;;;;5034010;28;20029;-60
2022/04/17 08:25:07;;;;;;;8.30;7.60;;;13.80;99.90;;;;;;5034252;28;20502;-60
2022/04/17 08:27:32;;;;;;;9.02;8.23;;;14.00;99.90;;;;;;5030298;28;20131;-60
2022/04/17 08:29:59;;;;;;;8.55;7.75;;;13.90;99.90;;;;;;5033680;28;20075;-60
2022/04/17 08:32:25;;;;;;;8.90;8.13;;;14.00;99.90;;;;;;5033879;28;20060;-60
2022/04/17 08:34:50;;;;;;;8.23;7.53;;;14.30;99.90;;;;;;5034134;28;20385;-60
2022/04/17 08:37:16;;;;;;;8.77;7.97;;;14.60;99.90;;;;;;5033858;28;20072;-60
2022/04/17 08:39:42;;;;;;;9.18;8.38;;;15.00;99.90;;;;;;5032623;28;20036;-60
2022/04/17 08:42:08;;;;;;;8.43;7.72;;;15.50;99.90;;;;;;5031290;28;20028;-60
2022/04/17 08:44:34;;;;;;;8.18;7.47;;;15.90;99.90;;;;;;5036469;28;20036;-60
2022/04/17 08:46:59;;;;;;;8.18;7.47;;;16.70;99.90;;;;;;5033986;28;20045;-58
2022/04/17 08:49:25;;;;;;;7.90;7.20;;;17.00;99.90;;;;;;5033861;28;20033;-60
2022/04/17 08:51:55;;;;;;;7.57;6.97;;;17.40;99.90;;;;;;5033523;28;20039;-58
2022/04/17 08:54:25;;;;;;;8.23;7.53;;;18.30;99.90;;;;;;5014329;28;20018;-58
2022/04/17 08:56:52;;;;;;;7.70;7.10;;;18.30;99.90;;;;;;5047932;28;20028;-58
2022/04/17 08:59:17;;;;;;;7.68;7.00;;;18.40;99.90;;;;;;5038275;28;20025;-59
2022/04/17 09:01:43;;;;;;;6.78;6.28;;;19.50;99.90;;;;;;5037953;28;20042;-58
2022/04/17 09:04:09;;;;;;;6.75;6.15;;;22.00;99.90;;;;;;5037994;28;20138;-61
2022/04/17 09:06:35;;;;;;;6.93;6.32;;;23.70;99.90;;;;;;5033382;28;20495;-58
2022/04/17 09:09:01;;;;;;;6.50;6.00;;;24.60;99.90;;;;;;5036818;28;20350;-59
2022/04/17 09:11:31;;;;;;;6.65;6.00;;;24.60;99.90;;;;;;5037751;28;20100;-60
2022/04/17 09:14:00;;;;;;;6.25;5.75;;;24.90;99.90;;;;;;5037695;28;20052;-60
2022/04/17 09:16:31;;;;;;;6.22;5.72;;;25.70;98.30;;;;;;5037512;28;20032;-58
2022/04/17 09:18:57;;;;;;;6.40;5.80;;;26.20;96.50;;;;;;5037450;28;20024;-58
2022/04/17 09:21:34;;;;;;;6.03;5.53;;;26.30;97.00;;;;;;5033086;28;20521;-58
2022/04/17 09:24:20;;;;;;;7.07;5.63;;;26.00;97.00;;;;;;5035489;28;20033;-61
2022/04/17 09:26:57;;;;;;;6.32;5.82;;;25.10;99.90;;;;;;5037943;28;20128;-58
2022/04/17 09:29:25;;;;;;;5.97;5.47;;;26.70;99.90;;;;;;5036951;28;20025;-61
2022/04/17 09:32:07;;;;;;;5.90;5.40;;;26.80;97.50;;;;;;5037623;28;20029;-61
2022/04/17 09:34:42;;;;;;;6.22;5.72;;;27.30;97.10;;;;;;5036813;28;20498;-58
2022/04/17 09:37:24;;;;;;;6.05;5.55;;;27.00;97.10;;;;;;5037148;28;20048;-58
2022/04/17 09:39:54;;;;;;;5.90;5.43;;;27.60;96.30;;;;;;5036816;28;20028;-59
2022/04/17 09:42:21;;;;;;;5.95;5.45;;;26.90;96.40;;;;;;5017148;28;20487;-59
2022/04/17 09:44:49;;;;;;;5.75;5.20;;;27.30;96.80;;;;;;5039099;28;20029;-59
2022/04/17 09:47:26;;;;;;;6.50;5.55;;;27.60;98.70;;;;;;5035460;28;20498;-58
2022/04/17 09:50:08;;;;;;;6.22;5.60;;;27.30;99.90;;;;;;5035285;28;20056;-59
2022/04/17 09:52:40;;;;;;;5.90;5.40;;;28.20;99.90;;;;;;5036770;28;20064;-59
2022/04/17 09:55:07;;;;;;;5.85;5.35;;;28.30;99.50;;;;;;5037043;28;20105;-59
2022/04/17 09:57:38;;;;;;;6.55;5.82;;;28.10;99.90;;;;;;5034040;28;20121;-59
2022/04/17 10:00:12;;;;;;;6.75;5.88;;;26.50;99.90;;;;;;5035162;28;20495;-59
2022/04/17 10:02:40;;;;;;;6.30;5.70;;;27.00;99.00;;;;;;5037387;28;20030;-59
2022/04/17 10:05:07;;;;;;;6.65;6.05;;;27.40;98.00;;;;;;5036595;28;20033;-59
2022/04/17 10:07:36;;;;;;;6.60;6.00;;;27.10;96.80;;;;;;5035931;28;20116;-59
2022/04/17 10:10:03;;;;;;;6.57;5.97;;;27.40;99.40;;;;;;5036599;28;20056;-59
2022/04/17 10:12:29;;;;;;;7.38;6.55;;;26.80;97.70;;;;;;5033131;28;20505;-59
2022/04/17 10:14:55;;;;;;;6.25;5.72;;;;;;;;;;5037383;28;20080;-58
2022/04/17 10:17:22;;;;;;;5.80;5.30;;;27.30;95.10;;;;;;5037091;28;20490;-59
2022/04/17 10:19:49;;;;;;;5.03;4.60;;;27.90;92.20;;;;;;5035883;28;20441;-58
2022/04/17 10:22:18;;;;;;;4.75;4.22;;;27.70;91.70;;;;;;5036323;28;20025;-59
2022/04/17 10:24:54;;;;;;;6.38;3.72;;;27.50;91.60;;;;;;5033575;28;20527;-59
2022/04/17 10:27:32;;;;;;;4.30;3.90;;;27.50;90.90;;;;;;5015168;28;20036;-59
2022/04/17 10:30:08;;;;;;;3.78;3.47;;;27.50;88.60;;;;;;5046653;28;20066;-59
2022/04/17 10:32:38;;;;;;;4.63;4.22;;;26.70;90.70;;;;;;5036107;28;20045;-59
2022/04/17 10:35:41;;;;;;;3.85;3.55;;;26.40;90.90;;;;;;5036221;28;20362;-59
2022/04/17 10:38:22;;;;;;;3.42;2.95;;;27.00;88.50;;;;;;5036046;28;20497;-59
2022/04/17 10:40:59;;;;;;;3.33;2.67;;;27.00;90.10;;;;;;5036461;28;20029;-60
2022/04/17 10:43:51;;;;;;;3.30;3.00;;;27.80;86.20;;;;;;5036211;28;20087;-59
2022/04/17 10:46:18;;;;;;;2.90;2.70;;;26.60;84.20;;;;;;5035747;28;20128;-59
2022/04/17 10:48:52;;;;;;;4.40;2.90;;;26.50;85.00;;;;;;5033914;28;20021;-59
2022/04/17 10:51:31;;;;;;;8.70;7.90;;;26.80;88.60;;;;;;5031818;28;20029;-59
2022/04/17 10:54:06;;;;;;;5.90;5.30;;;27.80;85.20;;;;;;5046256;28;20025;-59
2022/04/17 10:56:40;;;;;;;17.23;15.43;;;27.30;85.60;;;;;;5035662;28;20052;-59
2022/04/17 10:59:17;;;;;;;17.33;11.75;;;27.50;84.20;;;;;;5035586;28;20045;-59
2022/04/17 11:01:45;;;;;;;11.25;8.45;;;27.90;85.60;;;;;;5035876;28;20030;-59
2022/04/17 11:04:19;;;;;;;28.92;20.77;;;28.30;79.90;;;;;;5034330;28;20083;-61
2022/04/17 11:06:45;;;;;;;2.95;2.30;;;26.40;82.40;;;;;;5032816;28;20125;-59
2022/04/17 11:09:20;;;;;;;3.63;2.92;;;25.90;80.90;;;;;;5032671;28;20104;-59
2022/04/17 11:11:46;;;;;;;3.38;2.90;;;25.80;83.90;;;;;;5037577;28;20483;-58
2022/04/17 11:14:19;;;;;;;3.22;2.90;;;26.70;81.90;;;;;;5035394;28;20499;-59
2022/04/17 11:16:46;;;;;;;2.75;2.55;;;26.10;83.90;;;;;;5035346;28;20029;-59
2022/04/17 11:19:23;;;;;;;2.90;2.70;;;26.30;85.10;;;;;;5034371;28;20060;-59
2022/04/17 11:21:51;;;;;;;3.22;2.83;;;27.60;82.40;;;;;;5034712;28;20274;-59
2022/04/17 11:24:17;;;;;;;2.88;2.40;;;27.60;81.80;;;;;;5031499;28;20454;-59
2022/04/17 11:26:57;;;;;;;2.80;2.30;;;26.80;81.90;;;;;;5035996;28;20474;-59
2022/04/17 11:29:38;;;;;;;3.17;2.40;;;26.20;79.80;;;;;;5034463;28;20052;-60
2022/04/17 11:32:19;;;;;;;2.78;2.10;;;27.00;81.30;;;;;;5035207;28;20087;-59
2022/04/17 11:34:52;;;;;;;2.50;2.03;;;27.50;82.70;;;;;;5035009;28;20057;-59
2022/04/17 11:37:21;;;;;;;4.07;2.60;;;27.20;76.90;;;;;;5034926;28;20049;-60
2022/04/17 11:39:48;;;;;;;2.65;2.10;;;27.20;76.10;;;;;;5034365;28;20498;-60
2022/04/17 11:42:14;;;;;;;3.35;1.85;;;27.20;77.10;;;;;;5031008;28;20041;-60
2022/04/17 11:44:40;;;;;;;1.70;1.60;;;27.50;77.30;;;;;;5035987;28;20026;-60
2022/04/17 11:47:07;;;;;;;2.33;1.70;;;27.20;78.20;;;;;;5032905;28;20049;-60
2022/04/17 11:49:39;;;;;;;3.00;1.80;;;26.50;73.30;;;;;;5034945;28;20028;-59
2022/04/17 11:52:13;;;;;;;3.53;1.92;;;26.70;73.30;;;;;;5034803;28;20043;-59
2022/04/17 11:54:40;;;;;;;4.15;1.63;;;26.50;73.50;;;;;;5031310;28;20126;-59
2022/04/17 11:57:07;;;;;;;3.70;1.50;;;26.80;71.30;;;;;;5033077;28;20104;-60
2022/04/17 11:59:50;;;;;;;2.22;1.70;;;25.40;71.90;;;;;;5034328;28;20106;-60
2022/04/17 12:02:24;;;;;;;2.30;1.60;;;23.70;71.40;;;;;;5034739;28;20029;-59
2022/04/17 12:05:12;;;;;;;3.58;2.03;;;25.60;77.00;;;;;;5034574;28;20033;-59
2022/04/17 12:07:38;;;;;;;3.45;2.25;;;26.00;74.60;;;;;;5034500;28;20099;-59
2022/04/17 12:10:09;;;;;;;3.20;1.65;;;24.60;78.50;;;;;;5034549;28;20421;-60
2022/04/17 12:12:35;;;;;;;3.13;1.65;;;25.80;77.10;;;;;;5031496;28;20029;-59
2022/04/17 12:15:03;;;;;;;2.53;1.67;;;26.10;76.00;;;;;;5033413;28;20021;-60
2022/04/17 12:17:34;;;;;;;4.65;2.25;;;26.10;79.50;;;;;;5035820;28;20455;-60
2022/04/17 12:20:01;;;;;;;3.28;2.13;;;26.50;80.50;;;;;;5034242;28;20029;-59
2022/04/17 12:22:27;;;;;;;2.67;2.15;;;26.60;81.70;;;;;;5033208;28;20456;-60
2022/04/17 12:24:53;;;;;;;4.63;2.10;;;26.10;80.00;;;;;;5032303;28;20021;-59
2022/04/17 12:27:21;;;;;;;2.58;1.65;;;26.30;81.50;;;;;;5029955;28;20045;-59
2022/04/17 12:29:57;;;;;;;3.92;2.13;;;26.00;76.00;;;;;;5035911;28;20017;-59
2022/04/17 12:32:24;;;;;;;2.65;1.90;;;25.80;82.50;;;;;;5033425;28;20037;-59
2022/04/17 12:35:01;;;;;;;2.05;1.45;;;25.60;78.80;;;;;;5034752;28;20029;-59
2022/04/17 12:37:32;;;;;;;2.20;1.80;;;25.60;77.30;;;;;;5034056;28;20068;-59
2022/04/17 12:40:31;;;;;;;2.35;1.70;;;25.70;77.20;;;;;;5033995;28;20033;-60
2022/04/17 12:43:20;;;;;;;2.67;1.92;;;26.10;76.80;;;;;;5009050;28;20068;-60
2022/04/17 12:45:56;;;;;;;3.92;2.30;;;26.20;75.70;;;;;;5009374;28;20037;-59
2022/04/17 12:48:26;;;;;;;3.40;2.28;;;24.80;79.50;;;;;;5009285;28;20072;-60
2022/04/17 12:51:06;;;;;;;4.38;2.20;;;25.90;77.50;;;;;;5005939;28;20022;-60
2022/04/17 12:53:40;;;;;;;4.53;2.42;;;24.90;79.00;;;;;;5009799;28;20044;-60
2022/04/17 12:56:07;;;;;;;4.35;2.70;;;25.50;76.80;;;;;;5009359;28;20084;-59
2022/04/17 12:58:53;;;;;;;3.03;2.50;;;23.60;79.30;;;;;;5008591;28;20089;-60
2022/04/17 13:01:30;;;;;;;4.22;2.10;;;23.70;79.90;;;;;;5009026;28;20036;-60
2022/04/17 13:04:24;;;;;;;4.63;2.25;;;24.60;81.50;;;;;;5008913;28;20037;-60
2022/04/17 13:07:15;;;;;;;3.85;2.10;;;23.90;77.50;;;;;;5009059;28;20037;-59
2022/04/17 13:09:55;;;;;;;2.72;2.10;;;23.50;81.10;;;;;;5008878;28;20029;-60